Time;durP1;ratioP1;P1;durP2;ratioP2;P2;SDS_P1;SDS_P2;PMS_P1;PMS_P2;Temp;Humidity;BMP_temperature;BMP_pressure;BME280_temperature;BME280_humidity;BME280_pressure;Samples;Min_cycle;Max_cycle;Signal;HPM_P1;HPM_P2
2022/03/26 00:00:34;;;;;;;33.73;18.60;;;6.90;79.40;;;;;;5000031;28;20045;-53
2022/03/26 00:03:00;;;;;;;30.67;20.35;;;6.90;79.60;;;;;;5011907;28;20491;-56
2022/03/26 00:05:26;;;;;;;34.53;17.63;;;6.80;79.60;;;;;;5009306;28;20111;-53
2022/03/26 00:07:51;;;;;;;29.30;17.60;;;6.80;79.80;;;;;;5011365;28;20049;-56
2022/03/26 00:10:17;;;;;;;37.07;19.43;;;6.70;79.70;;;;;;5012516;28;20098;-56
2022/03/26 00:12:42;;;;;;;33.23;20.40;;;6.70;79.90;;;;;;4999804;28;20117;-56
2022/03/26 00:15:09;;;;;;;33.83;19.35;;;6.70;79.90;;;;;;5004537;28;20046;-52
2022/03/26 00:17:35;;;;;;;39.95;18.92;;;6.60;80.10;;;;;;5012096;28;20042;-56
2022/03/26 00:20:01;;;;;;;34.67;20.25;;;6.60;80.40;;;;;;5002736;28;20096;-56
2022/03/26 00:22:26;;;;;;;38.00;21.52;;;6.50;80.30;;;;;;4993038;28;20038;-56
2022/03/26 00:24:52;;;;;;;35.87;20.20;;;6.60;80.30;;;;;;5010047;28;20507;-56
2022/03/26 00:27:18;;;;;;;27.45;16.55;;;6.60;80.50;;;;;;5012230;28;20044;-52
2022/03/26 00:29:44;;;;;;;25.23;16.20;;;6.60;81.20;;;;;;4995782;28;20046;-55
2022/03/26 00:32:10;;;;;;;25.38;16.23;;;6.60;81.50;;;;;;4992376;28;20091;-57
2022/03/26 00:34:36;;;;;;;28.33;17.20;;;6.50;81.60;;;;;;5007732;28;20050;-56
2022/03/26 00:37:02;;;;;;;28.98;15.95;;;6.50;81.90;;;;;;5002938;28;20281;-56
2022/03/26 00:39:28;;;;;;;44.08;16.75;;;6.40;82.30;;;;;;4992206;28;20031;-56
2022/03/26 00:41:54;;;;;;;26.83;15.68;;;6.30;82.60;;;;;;4993204;28;20455;-56
2022/03/26 00:44:20;;;;;;;41.95;21.23;;;6.30;83.10;;;;;;4992110;28;20156;-55
2022/03/26 00:46:46;;;;;;;37.58;20.60;;;6.20;83.40;;;;;;4999698;28;20061;-55
2022/03/26 00:49:13;;;;;;;33.80;18.70;;;6.20;83.50;;;;;;5011469;28;20049;-56
2022/03/26 00:51:39;;;;;;;35.85;18.90;;;6.20;83.20;;;;;;4992329;28;20042;-57
2022/03/26 00:54:04;;;;;;;34.63;19.38;;;6.20;83.30;;;;;;5000747;28;20041;-53
2022/03/26 00:56:30;;;;;;;30.80;18.40;;;6.10;83.40;;;;;;5011213;28;20042;-53
2022/03/26 00:58:56;;;;;;;33.43;19.03;;;6.10;83.60;;;;;;5001599;28;20050;-55
2022/03/26 01:01:22;;;;;;;41.63;22.30;;;6.00;83.80;;;;;;4991620;28;20085;-54
2022/03/26 01:03:47;;;;;;;44.60;21.38;;;6.00;83.90;;;;;;4999873;28;20403;-54
2022/03/26 01:06:14;;;;;;;38.57;22.30;;;6.00;84.10;;;;;;5009738;28;20065;-57
2022/03/26 01:08:39;;;;;;;;;;;6.00;84.40;;;;;;4995745;28;20052;-53
2022/03/26 01:11:05;;;;;;;42.22;23.88;;;6.00;85.50;;;;;;4991800;28;20011;-54
2022/03/26 01:13:32;;;;;;;39.57;22.20;;;6.00;84.70;;;;;;5006108;28;20100;-55
2022/03/26 01:15:57;;;;;;;39.55;22.50;;;6.00;85.20;;;;;;5009029;28;20052;-55
2022/03/26 01:18:23;;;;;;;41.38;21.98;;;6.00;85.00;;;;;;5011131;28;20415;-56
2022/03/26 01:20:49;;;;;;;41.03;23.57;;;6.00;85.00;;;;;;5003247;28;20041;-55
2022/03/26 01:23:19;;;;;;;43.88;25.05;;;6.00;85.10;;;;;;4991696;28;20037;-55
2022/03/26 01:25:45;;;;;;;41.75;24.30;;;6.00;85.20;;;;;;5006526;28;20201;-54
2022/03/26 01:28:10;;;;;;;41.17;23.63;;;6.00;85.30;;;;;;4998970;28;20066;-52
2022/03/26 01:30:36;;;;;;;39.00;22.67;;;6.00;85.30;;;;;;4991474;28;20042;-55
2022/03/26 01:33:01;;;;;;;39.60;21.87;;;6.00;85.60;;;;;;5001631;28;20046;-56
2022/03/26 01:35:27;;;;;;;41.27;22.30;;;6.00;85.90;;;;;;5011359;28;20038;-55
2022/03/26 01:37:52;;;;;;;42.20;24.42;;;6.00;86.30;;;;;;5009087;28;20407;-55
2022/03/26 01:40:18;;;;;;;48.43;25.63;;;5.90;86.60;;;;;;5011369;28;20042;-55
2022/03/26 01:42:44;;;;;;;48.57;23.80;;;5.90;86.90;;;;;;4994405;28;20408;-56
2022/03/26 01:45:13;;;;;;;43.20;24.27;;;5.90;87.40;;;;;;4990995;28;20046;-56
2022/03/26 01:47:40;;;;;;;53.00;24.40;;;5.90;87.80;;;;;;5006338;28;20053;-55
2022/03/26 01:50:05;;;;;;;;;;;5.90;88.00;;;;;;5011742;28;20038;-55
2022/03/26 01:52:31;;;;;;;42.05;25.25;;;5.90;88.70;;;;;;4997703;28;20294;-56
2022/03/26 01:54:58;;;;;;;51.00;26.50;;;5.90;88.70;;;;;;4999575;28;20044;-54
2022/03/26 01:57:24;;;;;;;;;;;5.80;88.80;;;;;;4996006;28;20303;-55
2022/03/26 01:59:50;;;;;;;49.25;28.58;;;5.80;89.80;;;;;;4998165;28;19927;-56
2022/03/26 02:02:15;;;;;;;51.03;28.13;;;5.80;89.20;;;;;;5011308;28;20087;-56
2022/03/26 02:04:41;;;;;;;53.28;29.98;;;5.80;89.10;;;;;;5003863;28;20487;-53
2022/03/26 02:07:07;;;;;;;49.42;27.85;;;5.80;89.30;;;;;;4992261;28;20066;-56
2022/03/26 02:09:35;;;;;;;50.00;26.67;;;5.80;89.70;;;;;;4995315;28;20030;-56
2022/03/26 02:12:03;;;;;;;54.35;27.95;;;5.90;90.00;;;;;;5009516;28;20650;-56
2022/03/26 02:14:29;;;;;;;53.13;29.00;;;5.80;90.10;;;;;;4996413;28;20053;-56
2022/03/26 02:16:54;;;;;;;59.43;30.00;;;5.80;90.30;;;;;;4990699;28;20046;-56
2022/03/26 02:19:20;;;;;;;49.17;28.37;;;5.80;90.50;;;;;;4992700;28;20722;-54
2022/03/26 02:21:49;;;;;;;50.90;27.85;;;5.70;90.60;;;;;;5010613;28;20097;-53
2022/03/26 02:24:15;;;;;;;63.28;30.30;;;5.70;90.80;;;;;;5010622;28;20052;-55
2022/03/26 02:26:41;;;;;;;58.95;30.95;;;5.70;91.00;;;;;;4990724;28;20085;-56
2022/03/26 02:29:09;;;;;;;57.50;30.38;;;5.70;91.20;;;;;;4992230;28;20034;-53
2022/03/26 02:31:36;;;;;;;53.58;30.70;;;5.70;91.30;;;;;;4997723;28;20042;-56
2022/03/26 02:34:04;;;;;;;53.50;29.20;;;5.60;91.60;;;;;;5010728;28;20156;-56
2022/03/26 02:36:31;;;;;;;52.47;29.60;;;5.60;91.70;;;;;;5004531;28;20295;-55
2022/03/26 02:38:57;;;;;;;48.70;29.00;;;5.50;91.90;;;;;;4995218;28;20129;-56
2022/03/26 02:41:22;;;;;;;51.70;29.33;;;5.50;92.30;;;;;;4990464;28;20415;-55
2022/03/26 02:43:48;;;;;;;49.40;28.00;;;5.40;92.20;;;;;;4993366;28;20039;-56
2022/03/26 02:46:13;;;;;;;45.47;26.33;;;5.40;92.20;;;;;;5010367;28;20042;-53
2022/03/26 02:48:39;;;;;;;40.10;24.83;;;5.40;92.30;;;;;;5008822;28;20285;-56
2022/03/26 02:51:06;;;;;;;46.85;24.58;;;5.30;92.30;;;;;;5010664;28;20140;-56
2022/03/26 02:53:31;;;;;;;43.92;24.70;;;5.20;92.40;;;;;;4996290;28;20096;-56
2022/03/26 02:55:57;;;;;;;43.70;25.65;;;5.20;92.80;;;;;;4990176;28;20046;-54
2022/03/26 02:58:23;;;;;;;38.40;23.43;;;5.20;93.10;;;;;;5002568;28;20038;-55
2022/03/26 03:00:49;;;;;;;51.17;27.37;;;5.10;93.40;;;;;;5010339;28;20065;-56
2022/03/26 03:03:15;;;;;;;49.40;28.55;;;5.10;93.80;;;;;;4999426;28;20157;-55
2022/03/26 03:05:40;;;;;;;46.65;26.55;;;5.10;94.10;;;;;;4991489;28;20522;-55
2022/03/26 03:08:06;;;;;;;49.37;27.63;;;5.10;94.00;;;;;;5011909;28;20050;-53
2022/03/26 03:10:32;;;;;;;48.97;27.67;;;5.10;94.10;;;;;;5002330;28;20046;-54
2022/03/26 03:12:59;;;;;;;53.60;28.57;;;5.10;94.30;;;;;;4995143;28;20285;-55
2022/03/26 03:15:24;;;;;;;50.85;27.23;;;5.10;94.40;;;;;;4993997;28;20655;-57
2022/03/26 03:17:51;;;;;;;45.50;26.73;;;5.10;94.40;;;;;;4998096;28;20041;-56
2022/03/26 03:20:17;;;;;;;42.40;24.33;;;5.10;94.60;;;;;;5013901;28;20042;-57
2022/03/26 03:22:43;;;;;;;53.10;25.97;;;5.00;94.50;;;;;;5011926;28;20092;-55
2022/03/26 03:25:10;;;;;;;55.58;27.08;;;4.90;94.50;;;;;;5013512;28;20074;-54
2022/03/26 03:27:36;;;;;;;46.20;25.98;;;4.90;94.90;;;;;;5012791;28;20042;-56
2022/03/26 03:30:04;;;;;;;47.33;27.65;;;4.90;95.40;;;;;;4994246;28;20038;-55
2022/03/26 03:32:29;;;;;;;47.17;25.58;;;4.90;95.50;;;;;;4999135;28;20438;-55
2022/03/26 03:34:56;;;;;;;50.97;29.07;;;4.90;95.80;;;;;;4996896;28;20042;-57
2022/03/26 03:37:23;;;;;;;52.80;27.83;;;4.80;96.40;;;;;;4996660;28;20478;-56
2022/03/26 03:39:49;;;;;;;49.50;27.35;;;4.80;96.40;;;;;;5012772;28;20038;-55
2022/03/26 03:42:14;;;;;;;43.72;26.23;;;4.70;96.90;;;;;;5002437;28;20510;-57
2022/03/26 03:44:40;;;;;;;43.37;24.53;;;4.70;97.20;;;;;;4994612;28;20117;-53
2022/03/26 03:47:06;;;;;;;48.50;29.00;;;4.70;97.20;;;;;;4993496;28;20109;-54
2022/03/26 03:49:31;;;;;;;48.53;28.40;;;4.70;97.40;;;;;;5010076;28;20045;-55
2022/03/26 03:51:58;;;;;;;45.07;26.10;;;4.60;97.60;;;;;;5013181;28;20041;-55
2022/03/26 03:54:24;;;;;;;;;;;4.70;97.90;;;;;;4999007;28;20125;-56
2022/03/26 03:56:49;;;;;;;55.83;27.58;;;4.70;98.30;;;;;;4999990;28;20012;-54
2022/03/26 03:59:15;;;;;;;45.80;25.60;;;4.60;98.20;;;;;;5009222;28;20121;-54
2022/03/26 04:01:41;;;;;;;48.97;27.87;;;4.70;98.50;;;;;;4993812;28;20373;-55
2022/03/26 04:04:06;;;;;;;50.65;31.15;;;4.70;98.60;;;;;;4993897;28;20053;-56
2022/03/26 04:06:32;;;;;;;57.03;28.10;;;4.70;98.70;;;;;;5012547;28;20038;-54
2022/03/26 04:08:58;;;;;;;54.83;28.83;;;4.70;98.90;;;;;;4997101;28;20038;-55
2022/03/26 04:11:23;;;;;;;61.30;31.03;;;4.70;99.20;;;;;;4993450;28;20511;-55
2022/03/26 04:13:52;;;;;;;54.47;30.00;;;4.70;99.40;;;;;;5007399;28;20041;-55
2022/03/26 04:16:19;;;;;;;52.63;32.38;;;4.70;99.60;;;;;;5012418;28;20049;-53
2022/03/26 04:18:45;;;;;;;63.00;34.03;;;4.70;99.70;;;;;;4997640;28;20042;-56
2022/03/26 04:21:10;;;;;;;71.83;37.37;;;4.70;99.80;;;;;;4992971;28;20038;-57
2022/03/26 04:23:36;;;;;;;65.90;35.43;;;4.70;99.90;;;;;;5005402;28;20041;-55
2022/03/26 04:26:02;;;;;;;57.73;32.47;;;4.70;99.90;;;;;;5011835;28;20032;-56
2022/03/26 04:28:27;;;;;;;59.88;34.55;;;4.70;99.60;;;;;;5010407;28;20046;-56
2022/03/26 04:30:53;;;;;;;62.08;35.38;;;4.70;99.70;;;;;;4999248;28;20046;-55
2022/03/26 04:33:19;;;;;;;67.30;35.80;;;4.60;99.80;;;;;;4996482;28;20088;-56
2022/03/26 04:35:44;;;;;;;68.20;37.17;;;4.70;99.80;;;;;;5011330;28;20534;-57
2022/03/26 04:38:10;;;;;;;75.67;39.27;;;4.60;99.70;;;;;;5010200;28;20399;-56
2022/03/26 04:40:35;;;;;;;69.07;38.30;;;4.70;99.80;;;;;;4993623;28;20100;-54
2022/03/26 04:43:01;;;;;;;58.93;31.63;;;4.70;99.90;;;;;;5008067;28;20033;-54
2022/03/26 04:45:28;;;;;;;45.00;24.43;;;4.60;99.90;;;;;;5011668;28;20069;-55
2022/03/26 04:47:54;;;;;;;43.30;25.25;;;4.60;99.90;;;;;;4997254;28;20085;-53
2022/03/26 04:50:19;;;;;;;57.53;30.40;;;4.50;99.90;;;;;;4994705;28;20073;-55
2022/03/26 04:52:45;;;;;;;68.73;37.27;;;4.40;99.90;;;;;;5011545;28;20038;-53
2022/03/26 04:55:12;;;;;;;64.45;36.40;;;4.40;99.90;;;;;;5010864;28;20042;-55
2022/03/26 04:57:42;;;;;;;59.72;32.85;;;4.40;99.90;;;;;;5010619;28;20038;-52
2022/03/26 05:00:10;;;;;;;60.75;35.83;;;4.40;99.90;;;;;;5010963;28;20419;-55
2022/03/26 05:02:38;;;;;;;67.60;37.80;;;4.40;99.90;;;;;;4992119;28;20412;-54
2022/03/26 05:05:04;;;;;;;69.47;37.33;;;4.40;99.90;;;;;;4991377;28;20042;-55
2022/03/26 05:07:48;;;;;;;68.78;37.17;;;4.40;99.90;;;;;;5011435;28;20042;-55
2022/03/26 05:10:21;;;;;;;65.07;35.63;;;4.40;99.90;;;;;;5011035;28;20046;-53
2022/03/26 05:12:49;;;;;;;60.67;33.83;;;4.40;99.90;;;;;;4992300;28;20435;-57
2022/03/26 05:15:16;;;;;;;63.78;36.25;;;4.40;99.90;;;;;;5006853;28;20041;-56
2022/03/26 05:17:42;;;;;;;67.13;34.25;;;4.40;99.90;;;;;;5010774;28;20065;-57
2022/03/26 05:20:08;;;;;;;71.10;37.78;;;4.40;99.90;;;;;;4997507;28;20532;-57
2022/03/26 05:22:35;;;;;;;76.22;38.78;;;4.40;99.90;;;;;;5007976;28;20507;-56
2022/03/26 05:25:02;;;;;;;67.82;36.75;;;4.40;99.90;;;;;;5009403;28;20038;-56
2022/03/26 05:27:27;;;;;;;62.17;35.38;;;4.40;99.90;;;;;;5009833;28;20037;-55
2022/03/26 05:29:53;;;;;;;65.00;35.20;;;4.40;99.90;;;;;;4991808;28;20038;-56
2022/03/26 05:32:19;;;;;;;71.45;36.15;;;4.40;99.90;;;;;;4992059;28;20042;-56
2022/03/26 05:34:45;;;;;;;65.37;34.77;;;4.40;99.90;;;;;;4991288;28;20034;-57
2022/03/26 05:37:11;;;;;;;66.63;35.50;;;4.40;99.90;;;;;;5008082;28;20507;-54
2022/03/26 05:39:37;;;;;;;71.47;36.17;;;4.50;99.90;;;;;;5011343;28;20057;-55
2022/03/26 05:42:02;;;;;;;75.70;40.07;;;4.40;99.90;;;;;;5000061;28;20026;-57
2022/03/26 05:44:28;;;;;;;78.77;39.30;;;4.50;99.90;;;;;;5001415;28;20034;-55
2022/03/26 05:46:54;;;;;;;86.50;42.27;;;4.50;99.90;;;;;;4990759;28;20289;-57
2022/03/26 05:49:19;;;;;;;58.43;33.63;;;4.50;99.90;;;;;;4998119;28;20430;-57
2022/03/26 05:51:45;;;;;;;73.72;39.47;;;4.50;99.90;;;;;;5011376;28;20172;-55
2022/03/26 05:54:12;;;;;;;77.65;41.75;;;4.50;99.90;;;;;;4991842;28;20034;-55
2022/03/26 05:56:38;;;;;;;74.88;38.28;;;4.50;99.90;;;;;;4991197;28;20053;-55
2022/03/26 05:59:05;;;;;;;84.10;44.63;;;4.50;99.90;;;;;;5008023;28;20540;-52
2022/03/26 06:01:31;;;;;;;82.40;45.50;;;4.70;99.90;;;;;;5008716;28;20446;-53
2022/03/26 06:03:57;;;;;;;81.60;45.53;;;4.70;99.90;;;;;;5007105;28;20045;-55
2022/03/26 06:06:22;;;;;;;80.70;43.83;;;4.80;99.90;;;;;;5010235;28;20037;-54
2022/03/26 06:08:48;;;;;;;79.20;43.77;;;4.90;99.90;;;;;;4991081;28;20050;-53
2022/03/26 06:11:13;;;;;;;83.13;44.73;;;5.00;99.90;;;;;;5004625;28;20034;-54
2022/03/26 06:13:39;;;;;;;89.07;48.73;;;5.30;99.90;;;;;;5009302;28;20133;-53
2022/03/26 06:16:05;;;;;;;95.60;50.27;;;5.50;99.90;;;;;;5003639;28;20508;-56
2022/03/26 06:18:31;;;;;;;92.23;49.40;;;5.80;99.90;;;;;;4990956;28;20038;-53
2022/03/26 06:20:56;;;;;;;96.60;46.95;;;6.00;99.90;;;;;;4994395;28;20112;-56
2022/03/26 06:23:22;;;;;;;103.40;48.72;;;6.40;99.90;;;;;;5008843;28;20034;-53
2022/03/26 06:25:48;;;;;;;99.60;51.80;;;6.80;99.90;;;;;;5008095;28;20038;-53
2022/03/26 06:28:19;;;;;;;110.45;53.88;;;7.20;99.50;;;;;;4990707;28;20074;-55
2022/03/26 06:30:47;;;;;;;97.68;48.85;;;7.60;98.60;;;;;;4991276;28;20054;-53
2022/03/26 06:33:15;;;;;;;108.80;53.33;;;8.00;97.70;;;;;;5008745;28;20371;-54
2022/03/26 06:35:41;;;;;;;100.05;53.88;;;8.20;97.00;;;;;;5009780;28;20499;-57
2022/03/26 06:38:07;;;;;;;99.90;54.67;;;8.30;96.60;;;;;;5010272;28;20046;-55
2022/03/26 06:40:33;;;;;;;98.10;58.30;;;8.30;96.60;;;;;;4992979;28;20038;-53
2022/03/26 06:42:58;;;;;;;103.27;57.93;;;8.30;96.50;;;;;;4994603;28;20322;-56
2022/03/26 06:45:24;;;;;;;99.43;55.37;;;8.30;96.50;;;;;;5010791;28;20292;-53
2022/03/26 06:47:50;;;;;;;104.93;56.03;;;8.30;96.40;;;;;;5014112;28;20033;-56
2022/03/26 06:50:15;;;;;;;102.60;54.10;;;8.30;96.40;;;;;;4999458;28;20042;-60
2022/03/26 06:52:41;;;;;;;109.77;55.90;;;8.30;96.50;;;;;;4995709;28;20038;-57
2022/03/26 06:55:08;;;;;;;121.05;58.80;;;8.30;96.60;;;;;;5011663;28;20042;-56
2022/03/26 06:57:34;;;;;;;109.35;60.22;;;8.30;96.70;;;;;;5013377;28;20049;-57
2022/03/26 06:59:59;;;;;;;106.55;58.70;;;8.30;96.90;;;;;;4994017;28;20042;-55
2022/03/26 07:02:25;;;;;;;97.40;57.97;;;8.30;97.10;;;;;;4994558;28;20045;-56
2022/03/26 07:04:50;;;;;;;106.83;59.30;;;8.30;97.40;;;;;;5004768;28;20505;-57
2022/03/26 07:07:16;;;;;;;99.30;57.80;;;8.40;97.70;;;;;;4994159;28;20504;-57
2022/03/26 07:09:42;;;;;;;103.77;59.83;;;8.40;97.90;;;;;;5009532;28;20096;-57
2022/03/26 07:12:08;;;;;;;110.45;62.30;;;8.40;97.90;;;;;;5013458;28;20129;-56
2022/03/26 07:14:34;;;;;;;115.90;63.63;;;8.50;98.00;;;;;;4999927;28;20180;-55
2022/03/26 07:16:59;;;;;;;112.93;64.43;;;8.50;98.10;;;;;;4994072;28;20492;-56
2022/03/26 07:19:25;;;;;;;111.80;67.18;;;8.60;98.20;;;;;;5011947;28;20050;-57
2022/03/26 07:21:50;;;;;;;118.77;67.20;;;8.70;98.60;;;;;;5013268;28;20033;-57
2022/03/26 07:24:16;;;;;;;120.40;72.70;;;8.70;98.70;;;;;;4996099;28;20459;-56
2022/03/26 07:26:42;;;;;;;124.67;70.00;;;8.80;99.00;;;;;;5005852;28;20034;-57
2022/03/26 07:29:08;;;;;;;123.90;70.38;;;8.80;99.20;;;;;;5001126;28;20096;-55
2022/03/26 07:31:34;;;;;;;;;;;9.00;99.30;;;;;;4994067;28;20050;-56
2022/03/26 07:33:59;;;;;;;121.35;69.30;;;9.00;99.40;;;;;;5003822;28;20302;-55
2022/03/26 07:36:25;;;;;;;120.33;69.87;;;9.10;99.20;;;;;;5005642;28;20069;-55
2022/03/26 07:38:51;;;;;;;112.97;65.80;;;9.20;99.20;;;;;;4998262;28;20038;-52
2022/03/26 07:41:16;;;;;;;114.85;66.68;;;9.30;99.20;;;;;;5013177;28;20041;-54
2022/03/26 07:43:42;;;;;;;117.55;64.43;;;9.40;99.00;;;;;;5005757;28;20044;-55
2022/03/26 07:46:08;;;;;;;114.90;63.55;;;9.50;98.90;;;;;;4992513;28;20523;-55
2022/03/26 07:48:34;;;;;;;123.97;65.70;;;9.60;98.80;;;;;;4989391;28;20116;-53
2022/03/26 07:50:59;;;;;;;112.13;62.80;;;9.70;98.80;;;;;;4988543;28;20567;-56
2022/03/26 07:53:27;;;;;;;115.28;65.45;;;9.90;98.90;;;;;;4991829;28;20500;-53
2022/03/26 07:55:53;;;;;;;112.05;63.58;;;10.00;98.90;;;;;;4996098;28;20042;-56
2022/03/26 07:58:19;;;;;;;114.40;66.80;;;10.10;98.70;;;;;;5010636;28;20050;-55
2022/03/26 08:00:44;;;;;;;113.65;64.13;;;10.30;98.90;;;;;;5010993;28;20120;-52
2022/03/26 08:03:12;;;;;;;115.53;64.70;;;10.50;98.90;;;;;;4993150;28;20535;-54
2022/03/26 08:05:38;;;;;;;113.90;67.30;;;10.60;98.90;;;;;;4994156;28;20047;-55
2022/03/26 08:08:04;;;;;;;105.97;62.20;;;10.80;99.00;;;;;;5010994;28;20071;-53
2022/03/26 08:10:29;;;;;;;99.07;59.58;;;10.90;99.00;;;;;;4992816;28;20048;-56
2022/03/26 08:12:55;;;;;;;100.93;59.63;;;11.10;98.60;;;;;;4993080;28;20579;-55
2022/03/26 08:15:21;;;;;;;98.77;56.13;;;11.20;98.40;;;;;;4992662;28;20047;-56
2022/03/26 08:17:46;;;;;;;94.53;56.40;;;11.40;97.90;;;;;;4993742;28;20077;-56
2022/03/26 08:20:12;;;;;;;90.17;51.97;;;11.60;97.50;;;;;;5001336;28;20050;-56
2022/03/26 08:22:38;;;;;;;100.18;52.95;;;11.70;97.20;;;;;;5011411;28;20046;-55
2022/03/26 08:25:05;;;;;;;88.30;51.53;;;11.80;96.70;;;;;;4991822;28;20038;-54
2022/03/26 08:27:31;;;;;;;90.50;53.97;;;11.90;96.20;;;;;;4993678;28;20112;-57
2022/03/26 08:29:56;;;;;;;95.67;50.43;;;12.00;95.40;;;;;;4997084;28;20039;-57
2022/03/26 08:32:22;;;;;;;93.22;56.05;;;12.10;95.10;;;;;;4998031;28;20038;-56
2022/03/26 08:34:48;;;;;;;76.30;47.80;;;12.20;95.50;;;;;;5010430;28;20506;-56
2022/03/26 08:37:13;;;;;;;84.50;48.70;;;12.30;94.80;;;;;;4992020;28;20038;-55
2022/03/26 08:39:39;;;;;;;89.00;48.90;;;12.40;94.40;;;;;;5004730;28;20588;-55
2022/03/26 08:42:05;;;;;;;82.33;45.93;;;12.50;94.60;;;;;;5011401;28;20034;-55
2022/03/26 08:44:30;;;;;;;81.65;46.20;;;12.70;93.90;;;;;;5005171;28;20292;-53
2022/03/26 08:46:57;;;;;;;80.85;47.10;;;12.80;93.70;;;;;;4999837;28;20397;-55
2022/03/26 08:49:22;;;;;;;;;;;12.90;93.70;;;;;;4996144;28;20046;-56
2022/03/26 08:51:48;;;;;;;80.70;44.47;;;13.10;92.50;;;;;;4996451;28;19918;-54
2022/03/26 08:54:13;;;;;;;79.28;43.88;;;13.20;93.10;;;;;;5010931;28;20091;-56
2022/03/26 08:56:39;;;;;;;76.87;44.07;;;13.30;92.40;;;;;;5007636;28;20050;-53
2022/03/26 08:59:05;;;;;;;74.10;41.33;;;13.50;92.10;;;;;;5009465;28;20836;-53
2022/03/26 09:01:30;;;;;;;72.70;38.43;;;13.60;91.40;;;;;;5002966;28;20045;-55
2022/03/26 09:03:56;;;;;;;79.87;42.63;;;13.70;91.30;;;;;;5001506;28;20308;-57
2022/03/26 09:06:21;;;;;;;74.20;42.72;;;13.80;90.60;;;;;;5007139;28;20289;-54
2022/03/26 09:08:47;;;;;;;73.00;42.58;;;13.90;90.30;;;;;;5026377;28;20120;-53
2022/03/26 09:11:13;;;;;;;73.18;41.85;;;14.10;90.30;;;;;;5003184;28;20050;-54
2022/03/26 09:13:38;;;;;;;78.57;42.28;;;14.10;89.40;;;;;;5010318;28;20030;-56
2022/03/26 09:16:04;;;;;;;69.28;37.38;;;14.20;89.50;;;;;;5010686;28;20316;-52
2022/03/26 09:18:30;;;;;;;58.30;35.13;;;14.30;89.00;;;;;;5009538;28;20478;-53
2022/03/26 09:20:55;;;;;;;61.78;34.78;;;14.50;89.00;;;;;;5009401;28;20064;-54
2022/03/26 09:23:21;;;;;;;61.45;33.20;;;14.60;87.80;;;;;;4996293;28;20041;-55
2022/03/26 09:25:47;;;;;;;59.20;35.38;;;14.70;86.60;;;;;;4991965;28;20472;-55
2022/03/26 09:28:13;;;;;;;57.35;34.15;;;14.80;86.00;;;;;;5010934;28;20088;-55
2022/03/26 09:30:39;;;;;;;55.10;30.73;;;14.90;85.70;;;;;;5009457;28;20057;-54
2022/03/26 09:33:06;;;;;;;56.75;30.58;;;15.00;84.40;;;;;;5010894;28;20042;-55
2022/03/26 09:35:31;;;;;;;45.85;24.92;;;15.10;83.10;;;;;;4997067;28;20050;-55
2022/03/26 09:37:57;;;;;;;55.67;27.13;;;15.20;82.80;;;;;;4990605;28;20369;-56
2022/03/26 09:40:24;;;;;;;47.25;25.98;;;15.40;82.10;;;;;;5001617;28;20037;-55
2022/03/26 09:42:51;;;;;;;48.97;24.35;;;15.40;81.40;;;;;;5009798;28;20103;-55
2022/03/26 09:45:17;;;;;;;50.63;25.15;;;15.60;82.40;;;;;;4999324;28;20049;-55
2022/03/26 09:47:43;;;;;;;49.53;25.27;;;15.70;79.60;;;;;;4991218;28;20038;-52
2022/03/26 09:50:11;;;;;;;46.05;25.05;;;15.70;78.60;;;;;;5002834;28;20103;-55
2022/03/26 09:52:37;;;;;;;49.42;24.70;;;15.80;78.90;;;;;;5010722;28;20038;-53
2022/03/26 09:55:04;;;;;;;45.53;25.08;;;15.90;78.00;;;;;;4995240;28;20098;-54
2022/03/26 09:57:31;;;;;;;40.80;24.02;;;16.00;76.70;;;;;;5009810;28;20515;-54
2022/03/26 09:59:57;;;;;;;42.97;22.92;;;16.10;77.10;;;;;;5009828;28;20037;-55
2022/03/26 10:02:24;;;;;;;46.33;23.83;;;16.20;77.30;;;;;;5007189;28;20395;-54
2022/03/26 10:04:49;;;;;;;;;;;16.30;75.90;;;;;;4990809;28;20555;-52
2022/03/26 10:07:15;;;;;;;40.97;23.05;;;16.40;75.10;;;;;;4997082;28;20018;-55
2022/03/26 10:09:48;;;;;;;44.47;25.77;;;16.40;75.20;;;;;;5002793;28;20042;-55
2022/03/26 10:12:18;;;;;;;43.83;23.05;;;16.50;75.50;;;;;;4996244;28;20096;-54
2022/03/26 10:14:51;;;;;;;39.97;24.83;;;16.60;75.90;;;;;;5005319;28;20395;-52
2022/03/26 10:17:21;;;;;;;40.42;22.25;;;16.70;74.50;;;;;;4995672;28;20038;-55
2022/03/26 10:20:05;;;;;;;37.65;21.98;;;16.80;75.80;;;;;;5004031;28;20042;-52
2022/03/26 10:22:51;;;;;;;34.15;21.60;;;16.90;75.00;;;;;;4990889;28;20066;-53
2022/03/26 10:25:20;;;;;;;39.83;22.48;;;17.00;73.80;;;;;;5004614;28;20553;-51
2022/03/26 10:27:55;;;;;;;43.53;23.02;;;17.10;72.70;;;;;;5010012;28;20511;-51
2022/03/26 10:33:24;;;;;;;33.95;19.83;;;17.10;73.50;;;;;;4990711;28;20371;-55
2022/03/26 10:35:53;;;;;;;32.95;19.02;;;17.20;74.20;;;;;;5009142;28;20049;-52
2022/03/26 10:38:19;;;;;;;36.95;20.30;;;17.30;74.20;;;;;;5006098;28;20272;-54
2022/03/26 10:40:44;;;;;;;29.25;18.02;;;17.40;74.40;;;;;;5006930;28;20044;-54
2022/03/26 10:43:14;;;;;;;25.02;16.98;;;17.50;75.10;;;;;;5009676;28;20053;-53
2022/03/26 10:45:49;;;;;;;22.40;15.95;;;17.60;75.70;;;;;;5006598;28;20041;-52
2022/03/26 10:48:22;;;;;;;25.88;17.23;;;17.70;75.40;;;;;;5007576;28;20046;-54
2022/03/26 10:50:53;;;;;;;29.10;16.98;;;17.80;75.40;;;;;;4991088;28;20038;-55
2022/03/26 10:53:19;;;;;;;21.25;14.07;;;17.80;74.80;;;;;;5009291;28;20046;-53
2022/03/26 10:55:45;;;;;;;20.85;13.93;;;17.80;74.10;;;;;;4990001;28;20467;-54
2022/03/26 10:58:10;;;;;;;21.83;15.75;;;17.90;74.30;;;;;;4996077;28;20038;-53
2022/03/26 11:00:36;;;;;;;22.25;16.52;;;17.90;74.60;;;;;;4994640;28;20038;-55
2022/03/26 11:03:02;;;;;;;22.35;15.40;;;18.10;74.90;;;;;;4999366;28;20087;-55
2022/03/26 11:05:30;;;;;;;24.40;15.77;;;18.10;74.50;;;;;;4987097;28;20061;-52
2022/03/26 11:07:56;;;;;;;20.60;15.82;;;18.20;73.60;;;;;;4994832;28;20121;-55
2022/03/26 11:10:25;;;;;;;17.50;14.10;;;18.20;74.60;;;;;;5004425;28;20042;-52
2022/03/26 11:12:52;;;;;;;18.67;14.30;;;18.30;74.40;;;;;;4997035;28;20335;-54
2022/03/26 11:15:28;;;;;;;21.20;14.70;;;18.30;74.30;;;;;;4986083;28;20463;-55
2022/03/26 11:18:12;;;;;;;19.08;14.80;;;18.40;73.30;;;;;;4993888;28;20034;-55
2022/03/26 11:21:11;;;;;;;19.85;15.30;;;18.40;74.20;;;;;;5000245;28;20041;-54
2022/03/26 11:24:04;;;;;;;16.85;12.13;;;18.50;72.80;;;;;;5003584;28;20387;-54
2022/03/26 11:26:56;;;;;;;17.85;11.60;;;18.60;74.70;;;;;;4995712;28;20510;-54
2022/03/26 11:29:21;;;;;;;17.65;11.23;;;18.70;72.50;;;;;;5009028;28;20168;-54
2022/03/26 11:32:22;;;;;;;16.42;10.70;;;18.80;72.40;;;;;;4997814;28;20117;-55
2022/03/26 11:34:58;;;;;;;19.45;11.80;;;18.70;71.40;;;;;;4992365;28;20042;-52
2022/03/26 11:37:23;;;;;;;18.45;12.38;;;18.80;72.40;;;;;;4991693;28;20049;-55
2022/03/26 11:39:56;;;;;;;16.30;10.75;;;18.80;72.50;;;;;;5005462;28;20419;-55
2022/03/26 11:42:35;;;;;;;14.30;10.93;;;18.90;71.50;;;;;;5004686;28;20086;-54
2022/03/26 11:51:22;;;;;;;15.68;10.43;;;19.00;71.30;;;;;;4988709;28;20086;-55
2022/03/26 11:53:55;;;;;;;14.48;10.95;;;19.10;71.00;;;;;;4991820;28;20069;-56
2022/03/26 11:56:26;;;;;;;14.68;10.60;;;19.00;69.60;;;;;;4986994;28;20042;-55
2022/03/26 11:59:04;;;;;;;17.60;11.75;;;19.10;70.20;;;;;;4987867;28;20046;-54
2022/03/26 12:01:37;;;;;;;16.85;12.10;;;19.10;69.80;;;;;;4988978;28;20045;-55
2022/03/26 12:04:14;;;;;;;17.17;11.38;;;19.10;70.00;;;;;;4992957;28;20050;-55
2022/03/26 12:06:43;;;;;;;;;;;19.20;70.30;;;;;;4988178;28;20042;-55
2022/03/26 12:09:10;;;;;;;16.85;11.07;;;19.30;70.30;;;;;;4988814;28;20163;-54
2022/03/26 12:11:36;;;;;;;11.45;9.02;;;19.40;70.80;;;;;;4992484;28;20046;-53
2022/03/26 12:14:06;;;;;;;11.00;8.35;;;19.50;69.50;;;;;;4989000;28;20038;-53
2022/03/26 12:16:50;;;;;;;16.70;10.23;;;19.50;68.40;;;;;;4987783;28;20057;-54
2022/03/26 12:19:37;;;;;;;16.08;9.68;;;19.50;68.70;;;;;;4988407;28;20381;-54
2022/03/26 12:22:28;;;;;;;16.80;11.95;;;19.60;69.30;;;;;;4988814;28;20038;-52
2022/03/26 12:25:00;;;;;;;15.65;11.20;;;19.60;67.90;;;;;;5006918;28;20092;-54
2022/03/26 12:27:26;;;;;;;14.93;9.40;;;19.60;69.20;;;;;;5010795;28;20100;-55
2022/03/26 12:29:56;;;;;;;;;;;19.70;68.20;;;;;;5007725;28;20080;-53
2022/03/26 12:32:28;;;;;;;13.75;10.50;;;19.70;67.30;;;;;;5008231;28;19917;-54
2022/03/26 12:34:56;;;;;;;14.60;10.57;;;19.80;67.60;;;;;;5009470;28;20034;-51
2022/03/26 12:37:24;;;;;;;18.33;11.13;;;19.80;68.10;;;;;;5009142;28;20410;-52
2022/03/26 12:39:50;;;;;;;15.10;11.82;;;19.80;68.50;;;;;;5010002;28;20025;-54
2022/03/26 12:42:17;;;;;;;15.27;10.60;;;19.80;68.60;;;;;;5011096;28;20038;-52
2022/03/26 12:44:42;;;;;;;17.13;11.13;;;19.80;68.30;;;;;;5009841;28;20042;-53